Time;durP1;ratioP1;P1;durP2;ratioP2;P2;SDS_P1;SDS_P2;PMS_P1;PMS_P2;Temp;Humidity;BMP_temperature;BMP_pressure;BME280_temperature;BME280_humidity;BME280_pressure;Samples;Min_cycle;Max_cycle;Signal;HPM_P1;HPM_P2
2023/08/21 00:01:05;;;;;;;14.10;7.38;;;;;;;;;;10521963;28;20105;-76
2023/08/21 00:06:20;;;;;;;12.68;7.60;;;;;;;;;;10525309;28;20052;-76
2023/08/21 00:11:40;;;;;;;12.82;7.63;;;;;;;;;;10527998;28;20457;-76
2023/08/21 00:16:47;;;;;;;15.80;6.35;;;;;;;;;;10529872;28;20557;-76
2023/08/21 00:22:00;;;;;;;11.82;6.97;;;;;;;;;;10538521;28;20055;-76
2023/08/21 00:27:19;;;;;;;13.32;6.45;;;;;;;;;;10522873;28;20128;-76
2023/08/21 00:32:26;;;;;;;12.98;5.97;;;;;;;;;;10530538;28;20447;-75
2023/08/21 00:37:34;;;;;;;10.63;6.53;;;;;;;;;;10504216;28;20156;-76
2023/08/21 00:42:39;;;;;;;13.27;6.22;;;;;;;;;;10517184;28;20094;-74
2023/08/21 00:47:50;;;;;;;9.38;5.45;;;;;;;;;;10514857;28;20536;-76
2023/08/21 00:52:55;;;;;;;10.68;5.88;;;;;;;;;;10510621;28;20541;-75
2023/08/21 00:58:10;;;;;;;12.48;5.88;;;;;;;;;;10531614;28;20048;-75
2023/08/21 01:03:14;;;;;;;11.32;5.70;;;;;;;;;;10525428;28;20032;-75
2023/08/21 01:08:22;;;;;;;10.52;6.00;;;;;;;;;;10526128;28;20104;-75
2023/08/21 01:13:38;;;;;;;11.82;6.28;;;;;;;;;;10510740;28;20040;-75
2023/08/21 01:18:46;;;;;;;12.15;6.25;;;;;;;;;;10538526;28;20477;-75
2023/08/21 01:23:58;;;;;;;11.05;6.43;;;;;;;;;;10535760;28;20051;-74
2023/08/21 01:29:03;;;;;;;11.88;6.78;;;;;;;;;;10509050;28;20101;-74
2023/08/21 01:34:09;;;;;;;21.73;6.78;;;;;;;;;;10527773;28;20059;-74
2023/08/21 01:39:19;;;;;;;11.85;6.20;;;;;;;;;;10527588;28;20040;-74
2023/08/21 01:44:26;;;;;;;10.30;6.20;;;;;;;;;;10527034;28;20149;-74
2023/08/21 01:49:32;;;;;;;9.23;6.00;;;;;;;;;;10529607;28;20524;-75
2023/08/21 01:54:52;;;;;;;10.55;5.80;;;;;;;;;;10524349;28;20051;-74
2023/08/21 02:00:00;;;;;;;11.55;6.38;;;;;;;;;;10508558;28;20048;-74
2023/08/21 02:05:20;;;;;;;11.38;6.88;;;;;;;;;;10515118;28;20046;-74
2023/08/21 02:10:36;;;;;;;12.73;6.13;;;;;;;;;;10527541;28;20481;-75
2023/08/21 02:15:47;;;;;;;9.80;6.25;;;;;;;;;;10526551;28;20044;-74
2023/08/21 02:21:07;;;;;;;9.60;5.88;;;;;;;;;;10528137;28;20040;-75
2023/08/21 02:26:27;;;;;;;10.95;6.50;;;;;;;;;;10510944;28;20055;-75
2023/08/21 02:31:36;;;;;;;15.13;7.00;;;;;;;;;;10527707;28;20139;-74
2023/08/21 02:36:43;;;;;;;13.90;6.70;;;;;;;;;;10523937;28;20194;-75
2023/08/21 02:41:55;;;;;;;11.52;5.68;;;;;;;;;;10509300;28;20485;-74
2023/08/21 02:46:59;;;;;;;12.57;6.13;;;;;;;;;;10505408;28;20042;-75
2023/08/21 02:52:03;;;;;;;10.07;6.38;;;;;;;;;;10523919;28;20143;-75
2023/08/21 02:57:10;;;;;;;13.13;6.07;;;;;;;;;;10527973;28;20266;-75
2023/08/21 03:02:15;;;;;;;10.00;6.15;;;;;;;;;;10510023;28;20038;-74
2023/08/21 03:07:21;;;;;;;12.75;6.32;;;;;;;;;;10522961;28;20079;-74
2023/08/21 03:12:38;;;;;;;9.55;5.22;;;;;;;;;;10531805;28;20146;-74
2023/08/21 03:18:03;;;;;;;11.73;6.13;;;;;;;;;;10526524;28;20064;-75
2023/08/21 03:23:09;;;;;;;10.13;5.82;;;;;;;;;;10522832;28;20060;-75
2023/08/21 03:28:17;;;;;;;11.55;6.45;;;;;;;;;;10525962;28;20205;-75
2023/08/21 03:33:24;;;;;;;11.05;6.15;;;;;;;;;;10525393;28;20080;-75
2023/08/21 03:38:32;;;;;;;11.25;6.25;;;;;;;;;;10534620;28;20047;-75
2023/08/21 03:43:42;;;;;;;11.18;6.55;;;;;;;;;;10504323;28;20081;-74
2023/08/21 03:48:51;;;;;;;12.38;6.43;;;;;;;;;;10524610;28;20050;-75
2023/08/21 03:59:23;;;;;;;12.65;6.57;;;;;;;;;;10527259;28;20509;-75
2023/08/21 04:04:35;;;;;;;12.55;6.75;;;;;;;;;;10512349;28;20051;-76
2023/08/21 04:09:45;;;;;;;14.07;7.03;;;;;;;;;;10511292;28;20374;-77
2023/08/21 04:14:54;;;;;;;10.60;6.40;;;;;;;;;;10530970;28;20407;-76
2023/08/21 04:19:59;;;;;;;14.02;6.63;;;;;;;;;;10524991;28;20040;-76
2023/08/21 04:25:06;;;;;;;11.43;6.25;;;;;;;;;;10536256;28;20131;-76
2023/08/21 04:30:16;;;;;;;10.73;6.43;;;;;;;;;;10533077;28;20097;-76
2023/08/21 04:35:27;;;;;;;12.10;6.70;;;;;;;;;;10531578;28;20818;-75
2023/08/21 04:40:35;;;;;;;11.88;6.30;;;;;;;;;;10535924;28;20482;-75
2023/08/21 04:45:57;;;;;;;13.70;6.90;;;;;;;;;;10534656;28;20044;-77
2023/08/21 04:51:08;;;;;;;11.45;6.30;;;;;;;;;;10521241;28;20078;-76
2023/08/21 04:56:17;;;;;;;15.15;7.35;;;;;;;;;;10538099;28;20055;-74
2023/08/21 05:01:27;;;;;;;10.23;6.10;;;;;;;;;;10529134;28;20481;-75
2023/08/21 05:06:34;;;;;;;10.68;5.28;;;;;;;;;;10533889;28;20047;-75
2023/08/21 05:11:42;;;;;;;13.32;6.53;;;;;;;;;;10517021;28;20036;-75
2023/08/21 05:16:50;;;;;;;12.88;7.22;;;;;;;;;;10534734;28;20047;-75
2023/08/21 05:22:17;;;;;;;10.55;6.05;;;;;;;;;;10534607;28;20505;-74
2023/08/21 05:27:24;;;;;;;11.07;5.65;;;;;;;;;;10529122;28;20054;-74
2023/08/21 05:32:33;;;;;;;12.27;5.88;;;;;;;;;;10527039;28;20038;-74
2023/08/21 05:37:37;;;;;;;12.60;5.80;;;;;;;;;;10519385;28;20454;-74
2023/08/21 05:42:42;;;;;;;10.80;6.07;;;;;;;;;;10541413;28;20055;-74
2023/08/21 05:47:55;;;;;;;13.60;5.75;;;;;;;;;;10529179;28;20086;-73
2023/08/21 05:53:01;;;;;;;9.50;5.63;;;;;;;;;;10516697;28;20326;-74
2023/08/21 05:58:15;;;;;;;11.52;5.63;;;;;;;;;;10516976;28;20093;-74
2023/08/21 06:03:21;;;;;;;10.85;5.00;;;;;;;;;;10534041;28;20048;-74
2023/08/21 06:08:31;;;;;;;8.85;5.13;;;;;;;;;;10518599;28;20405;-74
2023/08/21 06:13:37;;;;;;;9.38;6.07;;;;;;;;;;10537064;28;20039;-74
2023/08/21 06:18:54;;;;;;;10.52;6.63;;;;;;;;;;10537945;28;20040;-74
2023/08/21 06:24:07;;;;;;;10.18;5.75;;;;;;;;;;10531657;28;20071;-74
2023/08/21 06:29:15;;;;;;;11.70;6.50;;;;;;;;;;10524010;28;20243;-74
2023/08/21 06:34:22;;;;;;;11.52;6.30;;;;;;;;;;10537172;28;20101;-74
2023/08/21 06:39:27;;;;;;;8.15;5.72;;;;;;;;;;10497607;28;20093;-74
2023/08/21 06:44:37;;;;;;;10.75;6.18;;;;;;;;;;10498482;28;20139;-73
2023/08/21 06:49:45;;;;;;;12.13;6.47;;;;;;;;;;10526885;28;20040;-74
2023/08/21 06:54:49;;;;;;;9.88;5.97;;;;;;;;;;10529671;28;20064;-74
2023/08/21 06:59:54;;;;;;;13.75;6.85;;;;;;;;;;10529789;28;20036;-74
2023/08/21 07:05:02;;;;;;;14.45;7.63;;;;;;;;;;10533034;28;20093;-74
2023/08/21 07:10:11;;;;;;;10.63;6.57;;;;;;;;;;10508427;28;20067;-74
2023/08/21 07:15:24;;;;;;;11.13;6.05;;;;;;;;;;10531109;28;20405;-75
2023/08/21 07:20:53;;;;;;;9.43;5.95;;;;;;;;;;10527684;28;20610;-75
2023/08/21 07:25:58;;;;;;;8.82;6.05;;;;;;;;;;10522382;28;20054;-75
2023/08/21 07:31:07;;;;;;;12.05;6.65;;;;;;;;;;10531505;28;20036;-75
2023/08/21 07:36:26;;;;;;;11.55;6.40;;;;;;;;;;10530402;28;20512;-75
2023/08/21 07:41:35;;;;;;;11.43;6.78;;;;;;;;;;10530620;28;20039;-75
2023/08/21 07:46:41;;;;;;;9.10;5.82;;;;;;;;;;10535025;28;20096;-75
2023/08/21 07:51:48;;;;;;;11.30;6.38;;;;;;;;;;10529895;28;20032;-75
2023/08/21 07:56:59;;;;;;;8.85;6.10;;;;;;;;;;10535618;28;20044;-75
2023/08/21 08:02:11;;;;;;;10.02;6.40;;;;;;;;;;10535752;28;20158;-75
2023/08/21 08:07:18;;;;;;;11.63;5.83;;;;;;;;;;10522545;28;20177;-76
2023/08/21 08:12:26;;;;;;;11.15;6.45;;;;;;;;;;10539899;28;20040;-76
2023/08/21 08:17:40;;;;;;;8.73;6.75;;;;;;;;;;10539223;28;20056;-75
2023/08/21 08:22:44;;;;;;;11.07;6.87;;;;;;;;;;10540678;28;20101;-75
2023/08/21 08:27:53;;;;;;;10.98;6.70;;;;;;;;;;10529518;28;20040;-75
2023/08/21 08:33:09;;;;;;;14.25;8.98;;;;;;;;;;10540302;28;20499;-76
2023/08/21 08:38:31;;;;;;;12.27;7.80;;;;;;;;;;10521779;28;20466;-75
2023/08/21 08:43:40;;;;;;;10.93;5.95;;;;;;;;;;10543275;28;20127;-75
2023/08/21 08:48:49;;;;;;;9.20;6.47;;;;;;;;;;10542142;28;20075;-75
2023/08/21 08:53:59;;;;;;;9.95;6.57;;;;;;;;;;10541652;28;20118;-75
2023/08/21 08:59:05;;;;;;;8.55;6.70;;;;;;;;;;10546616;28;20052;-75
2023/08/21 09:04:10;;;;;;;9.45;6.07;;;;;;;;;;10546026;28;20068;-76
2023/08/21 09:14:36;;;;;;;13.20;6.03;;;;;;;;;;10540950;28;20040;-75
2023/08/21 09:19:43;;;;;;;9.23;6.03;;;;;;;;;;10559037;28;20048;-75
2023/08/21 09:30:48;;;;;;;6.45;5.60;;;;;;;;;;10543831;28;20048;-76
2023/08/21 09:35:54;;;;;;;6.47;5.88;;;;;;;;;;10506243;28;20074;-77
2023/08/21 09:46:43;;;;;;;7.82;6.18;;;;;;;;;;10504167;27;20411;-76
2023/08/21 09:51:47;;;;;;;7.13;6.18;;;;;;;;;;10501381;28;20047;-76
2023/08/21 09:56:51;;;;;;;7.38;5.95;;;;;;;;;;10506040;28;20125;-75
2023/08/21 10:01:55;;;;;;;6.93;5.93;;;;;;;;;;10505424;28;20519;-76
2023/08/21 10:06:59;;;;;;;6.60;6.00;;;;;;;;;;10501765;28;20060;-76
2023/08/21 10:12:03;;;;;;;6.70;5.60;;;;;;;;;;10510005;28;20064;-77
2023/08/21 10:17:08;;;;;;;8.82;5.75;;;;;;;;;;10505976;28;20051;-77
2023/08/21 10:22:11;;;;;;;5.78;5.18;;;;;;;;;;10499414;28;20068;-77
2023/08/21 10:27:14;;;;;;;6.70;6.10;;;;;;;;;;10496310;28;20524;-78
2023/08/21 10:32:23;;;;;;;7.43;5.60;;;;;;;;;;10494097;28;20052;-78
2023/08/21 10:37:25;;;;;;;5.32;4.90;;;;;;;;;;10498613;28;20109;-77
2023/08/21 10:42:42;;;;;;;6.50;5.93;;;;;;;;;;10506614;28;20128;-78
2023/08/21 10:47:47;;;;;;;6.78;6.18;;;;;;;;;;10499735;28;20032;-77
2023/08/21 10:52:52;;;;;;;7.43;5.28;;;;;;;;;;10508498;28;20040;-77
2023/08/21 10:57:54;;;;;;;6.63;5.53;;;;;;;;;;10478318;28;20109;-78
2023/08/21 11:02:58;;;;;;;6.45;5.85;;;;;;;;;;10477118;28;20056;-77
2023/08/21 11:08:02;;;;;;;6.28;5.13;;;;;;;;;;10482860;28;20048;-76
2023/08/21 11:13:07;;;;;;;5.38;4.97;;;;;;;;;;10479428;28;20112;-77
2023/08/21 11:18:12;;;;;;;5.63;5.13;;;;;;;;;;10472837;28;20060;-77
2023/08/21 11:23:15;;;;;;;6.43;5.40;;;;;;;;;;10487081;28;20033;-76
2023/08/21 11:28:17;;;;;;;7.10;5.75;;;;;;;;;;10479804;28;20036;-77
2023/08/21 11:33:22;;;;;;;6.40;5.70;;;;;;;;;;10485682;28;20104;-77
2023/08/21 11:38:25;;;;;;;6.57;5.68;;;;;;;;;;10481201;28;20040;-77
2023/08/21 11:43:35;;;;;;;5.75;5.15;;;;;;;;;;10474858;28;20060;-77
2023/08/21 11:48:40;;;;;;;6.13;5.38;;;;;;;;;;10480772;28;20109;-76
2023/08/21 11:53:44;;;;;;;6.30;5.70;;;;;;;;;;10483620;28;20124;-76
2023/08/21 11:58:48;;;;;;;10.40;5.82;;;;;;;;;;10485989;28;20083;-77
2023/08/21 12:03:55;;;;;;;5.85;5.30;;;;;;;;;;10488594;28;20049;-77
2023/08/21 12:09:00;;;;;;;6.30;5.30;;;;;;;;;;10485054;28;20045;-76
2023/08/21 12:14:02;;;;;;;7.10;5.50;;;;;;;;;;10478637;28;20037;-77
2023/08/21 12:19:09;;;;;;;6.25;5.30;;;;;;;;;;10485999;28;20036;-77
2023/08/21 12:24:12;;;;;;;8.98;5.47;;;;;;;;;;10481448;28;20282;-77
2023/08/21 12:29:15;;;;;;;7.85;4.95;;;;;;;;;;10474870;28;20129;-77
2023/08/21 12:34:19;;;;;;;6.57;4.70;;;;;;;;;;10482465;28;20470;-78
2023/08/21 12:39:22;;;;;;;7.32;5.65;;;;;;;;;;10480155;28;20119;-77
2023/08/21 12:44:25;;;;;;;6.88;4.75;;;;;;;;;;10477221;28;20040;-78
2023/08/21 12:49:29;;;;;;;7.45;5.07;;;;;;;;;;10470536;28;20052;-78
2023/08/21 12:54:32;;;;;;;5.18;4.68;;;;;;;;;;10484335;28;20117;-78
2023/08/21 12:59:35;;;;;;;5.85;4.95;;;;;;;;;;10486469;28;20048;-77
2023/08/21 13:04:40;;;;;;;6.95;5.20;;;;;;;;;;10479676;28;20075;-79
2023/08/21 13:09:46;;;;;;;7.38;5.07;;;;;;;;;;10469134;28;20123;-78
2023/08/21 13:14:48;;;;;;;8.13;5.30;;;;;;;;;;10489951;28;20072;-78
2023/08/21 13:19:53;;;;;;;7.47;5.00;;;;;;;;;;10479814;28;20125;-78
2023/08/21 13:24:55;;;;;;;7.32;5.65;;;;;;;;;;10476162;28;20051;-77
2023/08/21 13:29:58;;;;;;;7.93;5.10;;;;;;;;;;10476558;28;20048;-77
2023/08/21 13:35:04;;;;;;;8.32;5.10;;;;;;;;;;10477820;28;20044;-78
2023/08/21 13:40:10;;;;;;;6.75;5.07;;;;;;;;;;10464933;28;20128;-78
2023/08/21 13:45:16;;;;;;;8.30;5.18;;;;;;;;;;10462068;28;20501;-78
2023/08/21 13:50:20;;;;;;;7.63;5.20;;;;;;;;;;10471114;28;20052;-78
2023/08/21 13:55:23;;;;;;;6.70;4.75;;;;;;;;;;10472864;28;20045;-78
2023/08/21 14:00:25;;;;;;;6.63;4.80;;;;;;;;;;10462951;28;20041;-78
2023/08/21 14:05:31;;;;;;;7.85;5.07;;;;;;;;;;10468756;28;20048;-77
2023/08/21 14:10:33;;;;;;;9.40;5.18;;;;;;;;;;10478759;28;20536;-77
2023/08/21 14:15:36;;;;;;;7.85;4.65;;;;;;;;;;10469377;28;20102;-77
2023/08/21 14:20:40;;;;;;;8.32;5.07;;;;;;;;;;10468251;28;20048;-78
2023/08/21 14:25:43;;;;;;;8.63;4.68;;;;;;;;;;10466931;28;20079;-77
2023/08/21 14:30:47;;;;;;;6.00;4.80;;;;;;;;;;10477917;28;20045;-77
2023/08/21 14:35:51;;;;;;;6.82;4.60;;;;;;;;;;10474910;28;20110;-77
2023/08/21 14:40:54;;;;;;;6.13;4.30;;;;;;;;;;10477134;28;20505;-77
2023/08/21 14:45:56;;;;;;;5.88;4.53;;;;;;;;;;10479026;28;20661;-77
2023/08/21 14:51:00;;;;;;;9.65;4.90;;;;;;;;;;10477507;28;20053;-77
2023/08/21 14:56:03;;;;;;;7.05;4.68;;;;;;;;;;10472560;28;20119;-77
2023/08/21 15:01:06;;;;;;;6.18;4.25;;;;;;;;;;10474330;28;20393;-78
2023/08/21 15:06:10;;;;;;;11.15;5.07;;;;;;;;;;10479751;28;20482;-77
2023/08/21 15:11:13;;;;;;;8.85;4.50;;;;;;;;;;10471478;28;20210;-77
2023/08/21 15:16:15;;;;;;;7.70;4.72;;;;;;;;;;10477642;28;20072;-77
2023/08/21 15:21:20;;;;;;;7.68;5.15;;;;;;;;;;10472872;28;20046;-76
2023/08/21 15:26:22;;;;;;;9.05;5.10;;;;;;;;;;10480459;28;20116;-77
2023/08/21 15:31:25;;;;;;;7.97;5.28;;;;;;;;;;10488300;28;20063;-76
2023/08/21 15:36:29;;;;;;;8.25;4.82;;;;;;;;;;10480895;28;20121;-76
2023/08/21 15:41:32;;;;;;;7.28;5.10;;;;;;;;;;10476441;28;20531;-77
2023/08/21 15:46:35;;;;;;;8.10;4.95;;;;;;;;;;10479982;28;20029;-77
2023/08/21 15:51:40;;;;;;;8.20;4.97;;;;;;;;;;10485312;28;20075;-76
2023/08/21 15:56:43;;;;;;;9.23;5.28;;;;;;;;;;10486861;28;20070;-76
2023/08/21 16:01:46;;;;;;;11.57;5.53;;;;;;;;;;10492493;28;20104;-76
2023/08/21 16:06:50;;;;;;;10.00;5.38;;;;;;;;;;10483612;28;20032;-76
2023/08/21 16:11:52;;;;;;;9.30;5.00;;;;;;;;;;10479477;28;21579;-77
2023/08/21 16:16:56;;;;;;;7.93;5.45;;;;;;;;;;10490221;28;21781;-76
2023/08/21 16:22:00;;;;;;;8.23;4.80;;;;;;;;;;10480657;28;20048;-76
2023/08/21 16:27:03;;;;;;;9.15;5.47;;;;;;;;;;10479138;28;20535;-77
2023/08/21 16:32:06;;;;;;;9.18;4.85;;;;;;;;;;10478880;28;20048;-75
2023/08/21 16:37:10;;;;;;;10.82;5.00;;;;;;;;;;10471763;28;20511;-75
2023/08/21 16:42:13;;;;;;;11.35;5.70;;;;;;;;;;10482800;28;20128;-76
2023/08/21 16:47:16;;;;;;;8.52;5.00;;;;;;;;;;10468893;28;20028;-75
2023/08/21 16:52:20;;;;;;;10.00;5.15;;;;;;;;;;10463255;28;20041;-76
2023/08/21 16:57:23;;;;;;;9.75;5.20;;;;;;;;;;10474552;28;20460;-76
2023/08/21 17:02:25;;;;;;;9.00;5.38;;;;;;;;;;10477520;28;20116;-75
2023/08/21 17:07:32;;;;;;;10.75;5.50;;;;;;;;;;10473805;28;20039;-75
2023/08/21 17:12:35;;;;;;;8.07;5.25;;;;;;;;;;10470100;28;20040;-74
2023/08/21 17:17:38;;;;;;;9.25;5.60;;;;;;;;;;10467025;28;20395;-75
2023/08/21 17:22:43;;;;;;;11.45;5.93;;;;;;;;;;10478229;28;20051;-78
2023/08/21 17:27:46;;;;;;;9.00;5.90;;;;;;;;;;10479176;28;20047;-77
2023/08/21 17:32:49;;;;;;;10.85;4.85;;;;;;;;;;10480070;28;20090;-76
2023/08/21 17:37:53;;;;;;;6.90;4.40;;;;;;;;;;10473864;28;20033;-76
2023/08/21 17:42:56;;;;;;;7.72;4.65;;;;;;;;;;10479493;28;20048;-77
2023/08/21 17:47:58;;;;;;;6.57;4.38;;;;;;;;;;10483643;28;20044;-76
2023/08/21 17:53:03;;;;;;;10.70;4.97;;;;;;;;;;10477633;28;20048;-75
2023/08/21 17:58:07;;;;;;;9.15;4.75;;;;;;;;;;10478275;28;20071;-75
2023/08/21 18:03:09;;;;;;;10.70;5.13;;;;;;;;;;10486320;28;20090;-76
2023/08/21 18:08:14;;;;;;;9.05;4.78;;;;;;;;;;10492441;28;20080;-75
2023/08/21 18:13:17;;;;;;;12.80;5.68;;;;;;;;;;10497388;28;20060;-76
2023/08/21 18:18:20;;;;;;;10.85;5.15;;;;;;;;;;10494785;28;20074;-77
2023/08/21 18:23:24;;;;;;;6.53;4.88;;;;;;;;;;10485103;28;20056;-76
2023/08/21 18:28:27;;;;;;;9.07;5.22;;;;;;;;;;10481369;28;20048;-75
2023/08/21 18:33:30;;;;;;;8.05;4.97;;;;;;;;;;10495764;28;20072;-75
2023/08/21 18:38:34;;;;;;;11.25;6.00;;;;;;;;;;10479569;28;20100;-75
2023/08/21 18:43:37;;;;;;;12.32;6.10;;;;;;;;;;10474804;28;20504;-75
2023/08/21 18:48:40;;;;;;;11.35;5.57;;;;;;;;;;10481770;28;20478;-76
2023/08/21 18:53:44;;;;;;;16.20;6.03;;;;;;;;;;10478934;28;20060;-80
2023/08/21 18:58:47;;;;;;;12.88;5.78;;;;;;;;;;10478055;28;20037;-77
2023/08/21 19:03:49;;;;;;;63.58;26.48;;;;;;;;;;10476868;28;20044;-78
2023/08/21 19:08:54;;;;;;;13.85;8.15;;;;;;;;;;10471862;28;20127;-80
2023/08/21 19:13:57;;;;;;;18.02;7.72;;;;;;;;;;10482227;28;20406;-80
2023/08/21 19:18:59;;;;;;;15.13;7.90;;;;;;;;;;10474521;28;20087;-80
2023/08/21 19:24:03;;;;;;;10.70;6.00;;;;;;;;;;10475312;28;20041;-80
2023/08/21 19:29:06;;;;;;;11.35;6.53;;;;;;;;;;10478237;28;20159;-80
2023/08/21 19:34:09;;;;;;;13.32;6.68;;;;;;;;;;10473990;28;20049;-79
2023/08/21 19:39:13;;;;;;;13.35;6.70;;;;;;;;;;10478364;28;20578;-80
2023/08/21 19:44:16;;;;;;;14.38;7.05;;;;;;;;;;10474087;28;20060;-79
2023/08/21 19:49:19;;;;;;;10.65;6.07;;;;;;;;;;10473515;28;20075;-78
2023/08/21 19:54:24;;;;;;;19.92;11.23;;;;;;;;;;10475546;28;20510;-79
2023/08/21 19:59:27;;;;;;;12.00;6.25;;;;;;;;;;10482794;28;20036;-79
2023/08/21 20:04:30;;;;;;;12.30;6.25;;;;;;;;;;10470937;28;20046;-79
2023/08/21 20:09:34;;;;;;;18.27;7.70;;;;;;;;;;10468631;28;20059;-81
2023/08/21 20:14:36;;;;;;;11.80;6.60;;;;;;;;;;10476212;28;20032;-87
2023/08/21 20:19:39;;;;;;;16.02;9.18;;;;;;;;;;10494417;28;20046;-86
2023/08/21 20:24:43;;;;;;;11.98;6.43;;;;;;;;;;10487376;28;20051;-82
2023/08/21 20:29:45;;;;;;;11.05;6.55;;;;;;;;;;10477969;28;20032;-85
2023/08/21 20:34:49;;;;;;;22.90;13.25;;;;;;;;;;10482272;28;20041;-83
2023/08/21 20:39:53;;;;;;;12.93;7.90;;;;;;;;;;10481448;28;20546;-83
2023/08/21 20:44:56;;;;;;;16.67;6.95;;;;;;;;;;10481952;28;20080;-82
2023/08/21 20:49:58;;;;;;;15.85;7.53;;;;;;;;;;10486137;28;20454;-82
2023/08/21 20:55:03;;;;;;;13.48;7.40;;;;;;;;;;10474572;28;20104;-83
2023/08/21 21:00:08;;;;;;;10.77;6.57;;;;;;;;;;10488429;28;20056;-83
2023/08/21 21:05:11;;;;;;;10.90;6.35;;;;;;;;;;10480793;28;20137;-80
2023/08/21 21:10:15;;;;;;;14.15;7.38;;;;;;;;;;10481518;28;20043;-79
2023/08/21 21:15:18;;;;;;;16.70;7.88;;;;;;;;;;10482704;28;20056;-79
2023/08/21 21:20:21;;;;;;;14.25;7.55;;;;;;;;;;10485974;28;20074;-78
2023/08/21 21:25:25;;;;;;;13.82;8.35;;;;;;;;;;10484077;28;20481;-79
2023/08/21 21:30:28;;;;;;;19.55;9.15;;;;;;;;;;10486415;28;20064;-79
2023/08/21 21:35:31;;;;;;;11.95;7.90;;;;;;;;;;10487644;28;20037;-78
2023/08/21 21:40:36;;;;;;;13.25;7.85;;;;;;;;;;10478646;28;20124;-79
2023/08/21 21:45:38;;;;;;;12.10;7.45;;;;;;;;;;10486235;28;20063;-78
2023/08/21 21:50:41;;;;;;;16.52;9.63;;;;;;;;;;10490932;28;20048;-78
2023/08/21 21:55:46;;;;;;;12.30;7.45;;;;;;;;;;10482305;28;20245;-77
2023/08/21 22:00:48;;;;;;;14.05;8.20;;;;;;;;;;10474984;28;20075;-76
2023/08/21 22:05:51;;;;;;;;;;;;;;;;;;10474437;28;20071;-76
2023/08/21 22:10:57;;;;;;;19.17;8.90;;;;;;;;;;10480606;28;19925;-77
2023/08/21 22:15:59;;;;;;;13.48;7.93;;;;;;;;;;10483591;28;20041;-77
2023/08/21 22:21:06;;;;;;;14.93;8.13;;;;;;;;;;10476758;28;20436;-75
2023/08/21 22:26:10;;;;;;;12.55;7.25;;;;;;;;;;10478447;28;20183;-76
2023/08/21 22:31:13;;;;;;;15.43;7.85;;;;;;;;;;10475443;28;20049;-76
2023/08/21 22:36:23;;;;;;;14.88;7.55;;;;;;;;;;10471876;28;20044;-76
2023/08/21 22:41:27;;;;;;;12.32;7.65;;;;;;;;;;10474635;28;20044;-76
2023/08/21 22:46:30;;;;;;;12.88;7.97;;;;;;;;;;10473035;28;20047;-75
2023/08/21 22:51:33;;;;;;;16.17;7.65;;;;;;;;;;10475795;28;20040;-75
2023/08/21 22:56:37;;;;;;;15.15;8.00;;;;;;;;;;10476549;28;20124;-76
2023/08/21 23:01:39;;;;;;;13.82;7.60;;;;;;;;;;10486747;28;20495;-77
2023/08/21 23:06:42;;;;;;;;;;;;;;;;;;10489103;28;20109;-77
2023/08/21 23:11:46;;;;;;;13.07;7.53;;;;;;;;;;10476656;28;19925;-76
2023/08/21 23:16:48;;;;;;;11.63;7.38;;;;;;;;;;10476764;28;20133;-75
2023/08/21 23:21:53;;;;;;;16.42;7.93;;;;;;;;;;10480571;28;20127;-75
2023/08/21 23:26:59;;;;;;;16.73;7.82;;;;;;;;;;10483726;28;20045;-77
2023/08/21 23:32:02;;;;;;;15.73;8.15;;;;;;;;;;10483209;28;20136;-75
2023/08/21 23:37:05;;;;;;;13.20;7.90;;;;;;;;;;10478214;28;20028;-75
2023/08/21 23:42:09;;;;;;;17.48;8.27;;;;;;;;;;10488214;28;20087;-76
2023/08/21 23:47:12;;;;;;;13.95;7.85;;;;;;;;;;10478470;28;20481;-76
2023/08/21 23:52:15;;;;;;;13.60;7.75;;;;;;;;;;10476871;28;20446;-76
2023/08/21 23:57:19;;;;;;;14.90;8.20;;;;;;;;;;10479930;28;20058;-76
